sensor_id;sensor_type;location;lat;lon;timestamp;pressure;altitude;pressure_sealevel;temperature;humidity
52319;BME280;38258;51.148;14.068;2023-03-04T00:00:48;98508.47;;;-2.35;100.00
52319;BME280;38258;51.148;14.068;2023-03-04T00:03:16;98676.59;;;-1.39;100.00
52319;BME280;38258;51.148;14.068;2023-03-04T00:05:43;98446.22;;;-2.64;100.00
52319;BME280;38258;51.148;14.068;2023-03-04T00:08:19;98650.75;;;-1.47;100.00
52319;BME280;38258;51.148;14.068;2023-03-04T00:10:47;98612.56;;;-1.71;100.00
52319;BME280;38258;51.148;14.068;2023-03-04T00:13:20;98553.69;;;-2.02;100.00
52319;BME280;38258;51.148;14.068;2023-03-04T00:15:47;98642.81;;;-1.56;100.00
52319;BME280;38258;51.148;14.068;2023-03-04T00:18:18;98618.78;;;-1.61;100.00
52319;BME280;38258;51.148;14.068;2023-03-04T00:20:47;98647.00;;;-1.60;100.00
52319;BME280;38258;51.148;14.068;2023-03-04T00:23:15;98528.44;;;-2.21;100.00
52319;BME280;38258;51.148;14.068;2023-03-04T00:25:44;98483.31;;;-2.50;100.00
52319;BME280;38258;51.148;14.068;2023-03-04T00:28:12;98595.50;;;-1.69;100.00
52319;BME280;38258;51.148;14.068;2023-03-04T00:30:43;98514.16;;;-2.10;100.00
52319;BME280;38258;51.148;14.068;2023-03-04T00:33:10;98583.41;;;-1.73;100.00
52319;BME280;38258;51.148;14.068;2023-03-04T00:35:39;98465.81;;;-2.33;100.00
52319;BME280;38258;51.148;14.068;2023-03-04T00:38:11;98613.94;;;-1.47;100.00
52319;BME280;38258;51.148;14.068;2023-03-04T00:40:37;98567.22;;;-1.72;100.00
52319;BME280;38258;51.148;14.068;2023-03-04T00:43:07;98655.72;;;-1.16;100.00
52319;BME280;38258;51.148;14.068;2023-03-04T00:45:35;98572.38;;;-1.71;100.00
52319;BME280;38258;51.148;14.068;2023-03-04T00:48:04;98596.88;;;-1.45;100.00
52319;BME280;38258;51.148;14.068;2023-03-04T00:50:33;98594.97;;;-1.55;100.00
52319;BME280;38258;51.148;14.068;2023-03-04T00:53:02;98533.66;;;-1.80;100.00
52319;BME280;38258;51.148;14.068;2023-03-04T00:55:29;98512.81;;;-1.95;100.00
52319;BME280;38258;51.148;14.068;2023-03-04T00:57:56;98432.19;;;-2.45;100.00
52319;BME280;38258;51.148;14.068;2023-03-04T01:00:24;98506.94;;;-1.91;100.00
52319;BME280;38258;51.148;14.068;2023-03-04T01:02:53;98531.56;;;-1.60;100.00
52319;BME280;38258;51.148;14.068;2023-03-04T01:05:20;98638.81;;;-1.08;100.00
52319;BME280;38258;51.148;14.068;2023-03-04T01:07:46;98544.50;;;-1.55;100.00
52319;BME280;38258;51.148;14.068;2023-03-04T01:10:14;98468.38;;;-1.94;100.00
52319;BME280;38258;51.148;14.068;2023-03-04T01:12:41;98571.31;;;-1.42;100.00
52319;BME280;38258;51.148;14.068;2023-03-04T01:15:09;98589.41;;;-1.36;100.00
52319;BME280;38258;51.148;14.068;2023-03-04T01:17:38;98470.81;;;-2.01;100.00
52319;BME280;38258;51.148;14.068;2023-03-04T01:20:08;98627.53;;;-1.15;100.00
52319;BME280;38258;51.148;14.068;2023-03-04T01:22:35;98579.19;;;-1.34;100.00
52319;BME280;38258;51.148;14.068;2023-03-04T01:25:03;98478.09;;;-1.81;100.00
52319;BME280;38258;51.148;14.068;2023-03-04T01:27:32;98426.91;;;-2.16;100.00
52319;BME280;38258;51.148;14.068;2023-03-04T01:30:08;98586.34;;;-1.21;100.00
52319;BME280;38258;51.148;14.068;2023-03-04T01:32:38;98588.28;;;-1.09;100.00
52319;BME280;38258;51.148;14.068;2023-03-04T01:35:09;98481.09;;;-1.62;100.00
52319;BME280;38258;51.148;14.068;2023-03-04T01:37:38;98436.78;;;-1.95;100.00
52319;BME280;38258;51.148;14.068;2023-03-04T01:40:06;98577.41;;;-0.98;100.00
52319;BME280;38258;51.148;14.068;2023-03-04T01:42:35;98539.88;;;-1.32;100.00
52319;BME280;38258;51.148;14.068;2023-03-04T01:45:05;98535.69;;;-1.28;100.00
52319;BME280;38258;51.148;14.068;2023-03-04T01:47:36;98423.34;;;-1.85;100.00
52319;BME280;38258;51.148;14.068;2023-03-04T01:50:10;98384.16;;;-2.17;100.00
52319;BME280;38258;51.148;14.068;2023-03-04T01:52:38;98417.00;;;-2.01;100.00
52319;BME280;38258;51.148;14.068;2023-03-04T01:55:14;98524.53;;;-1.30;100.00
52319;BME280;38258;51.148;14.068;2023-03-04T01:57:41;98498.47;;;-1.49;100.00
52319;BME280;38258;51.148;14.068;2023-03-04T02:00:22;98396.09;;;-2.18;100.00
52319;BME280;38258;51.148;14.068;2023-03-04T02:02:53;98578.91;;;-1.07;100.00
52319;BME280;38258;51.148;14.068;2023-03-04T02:05:22;98475.28;;;-1.53;100.00
52319;BME280;38258;51.148;14.068;2023-03-04T02:07:51;98473.41;;;-1.61;100.00
52319;BME280;38258;51.148;14.068;2023-03-04T02:10:19;98470.94;;;-1.58;100.00
52319;BME280;38258;51.148;14.068;2023-03-04T02:12:46;98450.31;;;-1.61;100.00
52319;BME280;38258;51.148;14.068;2023-03-04T02:15:15;98567.97;;;-1.00;100.00
52319;BME280;38258;51.148;14.068;2023-03-04T02:17:42;98456.94;;;-1.72;100.00
52319;BME280;38258;51.148;14.068;2023-03-04T02:20:16;98563.69;;;-0.99;100.00
52319;BME280;38258;51.148;14.068;2023-03-04T02:22:53;98323.88;;;-2.39;100.00
52319;BME280;38258;51.148;14.068;2023-03-04T02:25:26;98309.06;;;-2.53;100.00
52319;BME280;38258;51.148;14.068;2023-03-04T02:28:01;98496.25;;;-1.32;100.00
52319;BME280;38258;51.148;14.068;2023-03-04T02:30:31;98329.25;;;-2.29;100.00
52319;BME280;38258;51.148;14.068;2023-03-04T02:32:58;98440.84;;;-1.65;100.00
52319;BME280;38258;51.148;14.068;2023-03-04T02:35:25;98441.00;;;-1.57;100.00
52319;BME280;38258;51.148;14.068;2023-03-04T02:37:53;98408.84;;;-1.81;100.00
52319;BME280;38258;51.148;14.068;2023-03-04T02:40:23;98454.88;;;-1.47;100.00
52319;BME280;38258;51.148;14.068;2023-03-04T02:42:51;98537.16;;;-0.98;100.00
52319;BME280;38258;51.148;14.068;2023-03-04T02:45:45;98544.00;;;-0.98;100.00
52319;BME280;38258;51.148;14.068;2023-03-04T02:48:17;98296.66;;;-2.36;100.00
52319;BME280;38258;51.148;14.068;2023-03-04T02:51:18;98382.31;;;-1.83;100.00
52319;BME280;38258;51.148;14.068;2023-03-04T02:53:47;98480.97;;;-1.27;100.00
52319;BME280;38258;51.148;14.068;2023-03-04T02:56:41;98451.88;;;-1.27;100.00
52319;BME280;38258;51.148;14.068;2023-03-04T02:59:41;98526.91;;;-0.98;100.00
52319;BME280;38258;51.148;14.068;2023-03-04T03:02:34;98296.25;;;-2.15;100.00
52319;BME280;38258;51.148;14.068;2023-03-04T03:05:06;98351.69;;;-1.77;100.00
52319;BME280;38258;51.148;14.068;2023-03-04T03:07:40;98521.75;;;-1.00;100.00
52319;BME280;38258;51.148;14.068;2023-03-04T03:10:09;98502.94;;;-0.97;100.00
52319;BME280;38258;51.148;14.068;2023-03-04T03:12:54;98374.00;;;-1.73;100.00
52319;BME280;38258;51.148;14.068;2023-03-04T03:15:21;98337.72;;;-1.91;100.00
52319;BME280;38258;51.148;14.068;2023-03-04T03:17:56;98405.16;;;-1.54;100.00
52319;BME280;38258;51.148;14.068;2023-03-04T03:20:28;98376.56;;;-1.73;100.00
52319;BME280;38258;51.148;14.068;2023-03-04T03:22:55;98489.94;;;-1.06;100.00
52319;BME280;38258;51.148;14.068;2023-03-04T03:25:27;98226.22;;;-2.53;100.00
52319;BME280;38258;51.148;14.068;2023-03-04T03:27:55;98482.41;;;-0.97;100.00
52319;BME280;38258;51.148;14.068;2023-03-04T03:30:25;98310.75;;;-2.15;100.00
52319;BME280;38258;51.148;14.068;2023-03-04T03:32:53;98255.72;;;-2.33;100.00
52319;BME280;38258;51.148;14.068;2023-03-04T03:35:20;98371.66;;;-1.62;100.00
52319;BME280;38258;51.148;14.068;2023-03-04T03:37:49;98433.81;;;-1.32;100.00
52319;BME280;38258;51.148;14.068;2023-03-04T03:40:16;98433.19;;;-1.20;100.00
52319;BME280;38258;51.148;14.068;2023-03-04T03:42:44;98470.41;;;-0.98;100.00
52319;BME280;38258;51.148;14.068;2023-03-04T03:45:18;98374.94;;;-1.67;100.00
52319;BME280;38258;51.148;14.068;2023-03-04T03:47:45;98343.28;;;-1.69;100.00
52319;BME280;38258;51.148;14.068;2023-03-04T03:50:16;98466.91;;;-1.02;100.00
52319;BME280;38258;51.148;14.068;2023-03-04T03:53:10;98463.50;;;-1.02;100.00
52319;BME280;38258;51.148;14.068;2023-03-04T03:55:40;98432.34;;;-1.19;100.00
52319;BME280;38258;51.148;14.068;2023-03-04T03:58:15;98431.34;;;-1.27;100.00
52319;BME280;38258;51.148;14.068;2023-03-04T04:00:42;98424.41;;;-1.32;100.00
52319;BME280;38258;51.148;14.068;2023-03-04T04:03:18;98456.78;;;-0.94;100.00
52319;BME280;38258;51.148;14.068;2023-03-04T04:06:09;98453.22;;;-1.01;100.00
52319;BME280;38258;51.148;14.068;2023-03-04T04:08:52;98381.25;;;-1.51;100.00
52319;BME280;38258;51.148;14.068;2023-03-04T04:11:19;98426.94;;;-1.33;100.00
52319;BME280;38258;51.148;14.068;2023-03-04T04:13:48;98466.00;;;-1.04;100.00
52319;BME280;38258;51.148;14.068;2023-03-04T04:16:52;98199.63;;;-2.60;100.00
52319;BME280;38258;51.148;14.068;2023-03-04T04:19:15;98361.13;;;-1.74;100.00
52319;BME280;38258;51.148;14.068;2023-03-04T04:21:47;98414.97;;;-1.34;100.00
52319;BME280;38258;51.148;14.068;2023-03-04T04:24:19;98443.41;;;-1.23;100.00
52319;BME280;38258;51.148;14.068;2023-03-04T04:26:50;98195.84;;;-2.79;100.00
52319;BME280;38258;51.148;14.068;2023-03-04T04:29:42;98450.47;;;-1.11;100.00
52319;BME280;38258;51.148;14.068;2023-03-04T04:32:13;98381.22;;;-1.54;100.00
52319;BME280;38258;51.148;14.068;2023-03-04T04:34:40;98449.47;;;-1.20;100.00
52319;BME280;38258;51.148;14.068;2023-03-04T04:37:12;98502.00;;;-1.02;100.00
52319;BME280;38258;51.148;14.068;2023-03-04T04:39:56;98436.63;;;-1.20;100.00
52319;BME280;38258;51.148;14.068;2023-03-04T04:42:23;98472.19;;;-0.94;100.00
52319;BME280;38258;51.148;14.068;2023-03-04T04:45:01;98467.03;;;-0.94;100.00
52319;BME280;38258;51.148;14.068;2023-03-04T04:47:42;98460.94;;;-1.01;100.00
52319;BME280;38258;51.148;14.068;2023-03-04T04:50:12;98327.50;;;-1.90;100.00
52319;BME280;38258;51.148;14.068;2023-03-04T04:52:42;98277.31;;;-2.20;100.00
52319;BME280;38258;51.148;14.068;2023-03-04T04:55:24;98316.47;;;-1.86;100.00
52319;BME280;38258;51.148;14.068;2023-03-04T04:58:06;98411.66;;;-1.29;100.00
52319;BME280;38258;51.148;14.068;2023-03-04T05:00:33;98454.84;;;-1.07;100.00
52319;BME280;38258;51.148;14.068;2023-03-04T05:03:05;98339.88;;;-1.70;100.00
52319;BME280;38258;51.148;14.068;2023-03-04T05:05:32;98451.44;;;-1.05;100.00
52319;BME280;38258;51.148;14.068;2023-03-04T05:08:05;98435.69;;;-1.23;100.00
52319;BME280;38258;51.148;14.068;2023-03-04T05:10:35;98415.25;;;-1.19;100.00
52319;BME280;38258;51.148;14.068;2023-03-04T05:13:01;98276.78;;;-2.05;100.00
52319;BME280;38258;51.148;14.068;2023-03-04T05:15:28;98239.72;;;-2.21;100.00
52319;BME280;38258;51.148;14.068;2023-03-04T05:17:55;98439.50;;;-1.04;100.00
52319;BME280;38258;51.148;14.068;2023-03-04T05:20:24;98372.00;;;-1.45;100.00
52319;BME280;38258;51.148;14.068;2023-03-04T05:22:53;98409.09;;;-1.27;100.00
52319;BME280;38258;51.148;14.068;2023-03-04T05:25:21;98356.63;;;-1.43;100.00
52319;BME280;38258;51.148;14.068;2023-03-04T05:27:51;98322.06;;;-1.62;100.00
52319;BME280;38258;51.148;14.068;2023-03-04T05:30:24;98382.63;;;-1.24;100.00
52319;BME280;38258;51.148;14.068;2023-03-04T05:32:58;98319.25;;;-1.73;100.00
52319;BME280;38258;51.148;14.068;2023-03-04T05:35:57;98252.06;;;-2.01;100.00
52319;BME280;38258;51.148;14.068;2023-03-04T05:38:18;98282.38;;;-1.81;100.00
52319;BME280;38258;51.148;14.068;2023-03-04T05:40:55;98452.84;;;-0.76;100.00
52319;BME280;38258;51.148;14.068;2023-03-04T05:43:38;98286.63;;;-1.82;100.00
52319;BME280;38258;51.148;14.068;2023-03-04T05:46:16;98451.94;;;-0.78;100.00
52319;BME280;38258;51.148;14.068;2023-03-04T05:48:43;98443.28;;;-0.83;100.00
52319;BME280;38258;51.148;14.068;2023-03-04T05:51:10;98457.16;;;-0.74;100.00
52319;BME280;38258;51.148;14.068;2023-03-04T05:53:37;98448.59;;;-0.73;100.00
52319;BME280;38258;51.148;14.068;2023-03-04T05:56:10;98439.06;;;-0.80;100.00
52319;BME280;38258;51.148;14.068;2023-03-04T05:58:37;98451.13;;;-0.77;100.00
52319;BME280;38258;51.148;14.068;2023-03-04T06:01:04;98451.25;;;-0.69;100.00
52319;BME280;38258;51.148;14.068;2023-03-04T06:03:32;98458.13;;;-0.68;100.00
52319;BME280;38258;51.148;14.068;2023-03-04T06:05:58;98448.63;;;-0.71;100.00
52319;BME280;38258;51.148;14.068;2023-03-04T06:08:26;98445.97;;;-0.76;100.00
52319;BME280;38258;51.148;14.068;2023-03-04T06:10:54;98449.56;;;-0.67;100.00
52319;BME280;38258;51.148;14.068;2023-03-04T06:13:25;98435.66;;;-0.79;100.00
52319;BME280;38258;51.148;14.068;2023-03-04T06:15:56;98444.28;;;-0.75;100.00
52319;BME280;38258;51.148;14.068;2023-03-04T06:18:24;98444.38;;;-0.70;100.00
52319;BME280;38258;51.148;14.068;2023-03-04T06:20:55;98445.22;;;-0.70;100.00
52319;BME280;38258;51.148;14.068;2023-03-04T06:23:21;98450.50;;;-0.64;100.00
52319;BME280;38258;51.148;14.068;2023-03-04T06:25:51;98447.84;;;-0.67;100.00
52319;BME280;38258;51.148;14.068;2023-03-04T06:28:18;98444.44;;;-0.67;100.00
52319;BME280;38258;51.148;14.068;2023-03-04T06:30:46;98449.66;;;-0.63;100.00
52319;BME280;38258;51.148;14.068;2023-03-04T06:33:13;98443.59;;;-0.65;100.00
52319;BME280;38258;51.148;14.068;2023-03-04T06:35:40;98447.09;;;-0.61;100.00
52319;BME280;38258;51.148;14.068;2023-03-04T06:38:07;98442.78;;;-0.62;100.00
52319;BME280;38258;51.148;14.068;2023-03-04T06:40:34;98448.78;;;-0.63;100.00
52319;BME280;38258;51.148;14.068;2023-03-04T06:43:01;98433.22;;;-0.71;100.00
52319;BME280;38258;51.148;14.068;2023-03-04T06:45:28;98450.50;;;-0.62;100.00
52319;BME280;38258;51.148;14.068;2023-03-04T06:47:56;98451.38;;;-0.62;100.00
52319;BME280;38258;51.148;14.068;2023-03-04T06:50:23;98452.28;;;-0.58;100.00
52319;BME280;38258;51.148;14.068;2023-03-04T06:52:49;98443.78;;;-0.55;100.00
52319;BME280;38258;51.148;14.068;2023-03-04T06:55:16;98418.69;;;-0.70;100.00
52319;BME280;38258;51.148;14.068;2023-03-04T06:57:43;98443.81;;;-0.52;100.00
52319;BME280;38258;51.148;14.068;2023-03-04T07:00:11;98443.78;;;-0.55;100.00
52319;BME280;38258;51.148;14.068;2023-03-04T07:02:38;98450.75;;;-0.48;100.00
52319;BME280;38258;51.148;14.068;2023-03-04T07:05:08;98445.53;;;-0.53;100.00
52319;BME280;38258;51.148;14.068;2023-03-04T07:07:35;98448.25;;;-0.44;100.00
52319;BME280;38258;51.148;14.068;2023-03-04T07:10:02;98444.75;;;-0.49;100.00
52319;BME280;38258;51.148;14.068;2023-03-04T07:12:29;98443.06;;;-0.47;100.00
52319;BME280;38258;51.148;14.068;2023-03-04T07:14:56;98436.91;;;-0.57;100.00
52319;BME280;38258;51.148;14.068;2023-03-04T07:17:23;98442.13;;;-0.50;100.00
52319;BME280;38258;51.148;14.068;2023-03-04T07:19:50;98446.47;;;-0.49;100.00
52319;BME280;38258;51.148;14.068;2023-03-04T07:22:18;98445.53;;;-0.51;100.00
52319;BME280;38258;51.148;14.068;2023-03-04T07:24:45;98436.22;;;-0.46;100.00
52319;BME280;38258;51.148;14.068;2023-03-04T07:27:12;98445.63;;;-0.48;100.00
52319;BME280;38258;51.148;14.068;2023-03-04T07:29:38;98446.41;;;-0.51;100.00
52319;BME280;38258;51.148;14.068;2023-03-04T07:32:06;98437.91;;;-0.48;100.00
52319;BME280;38258;51.148;14.068;2023-03-04T07:34:34;98446.41;;;-0.51;100.00
52319;BME280;38258;51.148;14.068;2023-03-04T07:37:02;98427.50;;;-0.54;100.00
52319;BME280;38258;51.148;14.068;2023-03-04T07:39:30;98438.78;;;-0.46;100.00
52319;BME280;38258;51.148;14.068;2023-03-04T07:41:57;98444.88;;;-0.43;100.00
52319;BME280;38258;51.148;14.068;2023-03-04T07:44:24;98439.66;;;-0.46;100.00
52319;BME280;38258;51.148;14.068;2023-03-04T07:46:50;98443.94;;;-0.45;100.00
52319;BME280;38258;51.148;14.068;2023-03-04T07:49:17;98441.47;;;-0.40;100.00
52319;BME280;38258;51.148;14.068;2023-03-04T07:51:44;98438.16;;;-0.33;100.00
52319;BME280;38258;51.148;14.068;2023-03-04T07:54:11;98439.03;;;-0.31;100.00
52319;BME280;38258;51.148;14.068;2023-03-04T07:56:39;98437.44;;;-0.22;100.00
52319;BME280;38258;51.148;14.068;2023-03-04T07:59:05;98433.41;;;-0.06;100.00
52319;BME280;38258;51.148;14.068;2023-03-04T08:01:34;98435.06;;;-0.11;100.00
52319;BME280;38258;51.148;14.068;2023-03-04T08:04:03;98431.66;;;-0.10;100.00
52319;BME280;38258;51.148;14.068;2023-03-04T08:06:31;98424.59;;;-0.22;100.00
52319;BME280;38258;51.148;14.068;2023-03-04T08:08:59;98432.41;;;-0.16;100.00
52319;BME280;38258;51.148;14.068;2023-03-04T08:11:27;98423.81;;;-0.18;100.00
52319;BME280;38258;51.148;14.068;2023-03-04T08:13:56;98429.06;;;-0.09;100.00
52319;BME280;38258;51.148;14.068;2023-03-04T08:16:23;98424.00;;;-0.06;100.00
52319;BME280;38258;51.148;14.068;2023-03-04T08:18:52;98421.38;;;-0.10;100.00
52319;BME280;38258;51.148;14.068;2023-03-04T08:21:21;98428.47;;;0.06;100.00
52319;BME280;38258;51.148;14.068;2023-03-04T08:23:49;98394.53;;;-0.26;100.00
52319;BME280;38258;51.148;14.068;2023-03-04T08:26:18;98423.25;;;0.02;100.00
52319;BME280;38258;51.148;14.068;2023-03-04T08:28:46;98426.59;;;-0.04;100.00
52319;BME280;38258;51.148;14.068;2023-03-04T08:31:16;98422.41;;;0.03;100.00
52319;BME280;38258;51.148;14.068;2023-03-04T08:33:44;98434.41;;;0.04;100.00
52319;BME280;38258;51.148;14.068;2023-03-04T08:36:11;98412.00;;;-0.05;100.00
52319;BME280;38258;51.148;14.068;2023-03-04T08:38:38;98421.69;;;0.13;100.00
52319;BME280;38258;51.148;14.068;2023-03-04T08:41:05;98419.16;;;0.15;100.00
52319;BME280;38258;51.148;14.068;2023-03-04T08:43:32;98414.78;;;0.10;100.00
52319;BME280;38258;51.148;14.068;2023-03-04T08:45:59;98413.94;;;0.11;100.00
52319;BME280;38258;51.148;14.068;2023-03-04T08:48:28;98426.81;;;0.11;100.00
52319;BME280;38258;51.148;14.068;2023-03-04T08:50:58;98422.56;;;0.15;100.00
52319;BME280;38258;51.148;14.068;2023-03-04T08:53:25;98391.47;;;-0.02;100.00
52319;BME280;38258;51.148;14.068;2023-03-04T08:55:52;98421.88;;;0.25;100.00
52319;BME280;38258;51.148;14.068;2023-03-04T08:58:19;98423.56;;;0.25;100.00
52319;BME280;38258;51.148;14.068;2023-03-04T09:00:48;98402.91;;;0.19;100.00
52319;BME280;38258;51.148;14.068;2023-03-04T09:03:16;98414.03;;;0.19;100.00
52319;BME280;38258;51.148;14.068;2023-03-04T09:05:47;98421.88;;;0.27;100.00
52319;BME280;38258;51.148;14.068;2023-03-04T09:08:15;98418.50;;;0.33;100.00
52319;BME280;38258;51.148;14.068;2023-03-04T09:10:42;98419.25;;;0.22;100.00
52319;BME280;38258;51.148;14.068;2023-03-04T09:13:09;98419.25;;;0.24;100.00
52319;BME280;38258;51.148;14.068;2023-03-04T09:15:37;98412.53;;;0.32;100.00
52319;BME280;38258;51.148;14.068;2023-03-04T09:18:04;98410.75;;;0.30;100.00
52319;BME280;38258;51.148;14.068;2023-03-04T09:20:33;98411.50;;;0.21;100.00
52319;BME280;38258;51.148;14.068;2023-03-04T09:23:01;98410.63;;;0.19;100.00
52319;BME280;38258;51.148;14.068;2023-03-04T09:25:28;98408.09;;;0.22;100.00
52319;BME280;38258;51.148;14.068;2023-03-04T09:27:55;98415.09;;;0.32;100.00
52319;BME280;38258;51.148;14.068;2023-03-04T09:30:22;98413.41;;;0.36;100.00
52319;BME280;38258;51.148;14.068;2023-03-04T09:32:49;98408.31;;;0.39;100.00
52319;BME280;38258;51.148;14.068;2023-03-04T09:35:16;98406.69;;;0.47;100.00
52319;BME280;38258;51.148;14.068;2023-03-04T09:37:43;98399.88;;;0.51;100.00
52319;BME280;38258;51.148;14.068;2023-03-04T09:40:16;98400.00;;;0.60;100.00
52319;BME280;38258;51.148;14.068;2023-03-04T09:42:47;98406.00;;;0.61;100.00
52319;BME280;38258;51.148;14.068;2023-03-04T09:45:18;98398.09;;;0.45;100.00
52319;BME280;38258;51.148;14.068;2023-03-04T09:47:48;98395.59;;;0.50;100.00
52319;BME280;38258;51.148;14.068;2023-03-04T09:50:16;98386.28;;;0.61;100.00
52319;BME280;38258;51.148;14.068;2023-03-04T09:52:54;98390.66;;;0.70;100.00
52319;BME280;38258;51.148;14.068;2023-03-04T09:55:32;98384.38;;;0.46;100.00
52319;BME280;38258;51.148;14.068;2023-03-04T09:58:04;98397.50;;;0.65;100.00
52319;BME280;38258;51.148;14.068;2023-03-04T10:00:36;98386.34;;;0.66;100.00
52319;BME280;38258;51.148;14.068;2023-03-04T10:03:11;98381.22;;;0.70;100.00
52319;BME280;38258;51.148;14.068;2023-03-04T10:05:43;98385.56;;;0.73;100.00
52319;BME280;38258;51.148;14.068;2023-03-04T10:08:26;98383.00;;;0.76;100.00
52319;BME280;38258;51.148;14.068;2023-03-04T10:10:59;98370.13;;;0.76;100.00
52319;BME280;38258;51.148;14.068;2023-03-04T10:13:32;98375.34;;;0.84;100.00
52319;BME280;38258;51.148;14.068;2023-03-04T10:16:04;98376.16;;;0.77;100.00
52319;BME280;38258;51.148;14.068;2023-03-04T10:18:36;98372.72;;;0.78;100.00
52319;BME280;38258;51.148;14.068;2023-03-04T10:21:10;98376.16;;;0.77;100.00
52319;BME280;38258;51.148;14.068;2023-03-04T10:23:38;98370.97;;;0.75;100.00
52319;BME280;38258;51.148;14.068;2023-03-04T10:26:12;98369.34;;;0.80;100.00
52319;BME280;38258;51.148;14.068;2023-03-04T10:28:40;98376.16;;;0.77;100.00
52319;BME280;38258;51.148;14.068;2023-03-04T10:31:14;98364.97;;;0.75;100.00
52319;BME280;38258;51.148;14.068;2023-03-04T10:33:42;98364.22;;;0.85;100.00
52319;BME280;38258;51.148;14.068;2023-03-04T10:36:23;98367.63;;;0.82;100.00
52319;BME280;38258;51.148;14.068;2023-03-04T10:38:53;98364.22;;;0.83;100.00
52319;BME280;38258;51.148;14.068;2023-03-04T10:41:24;98373.66;;;0.84;100.00
52319;BME280;38258;51.148;14.068;2023-03-04T10:44:03;98363.41;;;0.91;100.00
52319;BME280;38258;51.148;14.068;2023-03-04T10:46:30;98361.00;;;1.08;100.00
52319;BME280;38258;51.148;14.068;2023-03-04T10:48:58;98358.41;;;1.06;100.00
52319;BME280;38258;51.148;14.068;2023-03-04T10:51:26;98363.47;;;0.94;100.00
52319;BME280;38258;51.148;14.068;2023-03-04T10:53:56;98365.97;;;0.91;100.00
52319;BME280;38258;51.148;14.068;2023-03-04T10:56:34;98360.94;;;1.00;100.00
52319;BME280;38258;51.148;14.068;2023-03-04T10:59:24;98355.81;;;1.02;100.00
52319;BME280;38258;51.148;14.068;2023-03-04T11:01:55;98364.31;;;0.94;100.00
52319;BME280;38258;51.148;14.068;2023-03-04T11:04:22;98359.22;;;1.02;100.00
52319;BME280;38258;51.148;14.068;2023-03-04T11:06:50;98362.81;;;1.15;100.00
52319;BME280;38258;51.148;14.068;2023-03-04T11:09:21;98354.22;;;1.16;100.00
52319;BME280;38258;51.148;14.068;2023-03-04T11:11:51;98351.63;;;1.18;100.00
52319;BME280;38258;51.148;14.068;2023-03-04T11:14:22;98350.88;;;1.28;100.00
52319;BME280;38258;51.148;14.068;2023-03-04T11:16:52;98315.44;;;0.99;100.00
52319;BME280;38258;51.148;14.068;2023-03-04T11:19:21;98346.63;;;1.33;100.00
52319;BME280;38258;51.148;14.068;2023-03-04T11:21:50;98330.25;;;1.25;100.00
52319;BME280;38258;51.148;14.068;2023-03-04T11:24:20;98335.47;;;1.36;100.00
52319;BME280;38258;51.148;14.068;2023-03-04T11:26:54;98338.88;;;1.32;100.00
52319;BME280;38258;51.148;14.068;2023-03-04T11:29:25;98335.53;;;1.44;100.00
52319;BME280;38258;51.148;14.068;2023-03-04T11:31:57;98336.38;;;1.43;100.00
52319;BME280;38258;51.148;14.068;2023-03-04T11:34:33;98335.53;;;1.40;100.00
52319;BME280;38258;51.148;14.068;2023-03-04T11:37:06;98340.63;;;1.36;100.00
52319;BME280;38258;51.148;14.068;2023-03-04T11:39:37;98345.00;;;1.45;100.00
52319;BME280;38258;51.148;14.068;2023-03-04T11:42:16;98333.13;;;1.68;100.00
52319;BME280;38258;51.148;14.068;2023-03-04T11:44:47;98333.06;;;1.59;100.00
52319;BME280;38258;51.148;14.068;2023-03-04T11:47:35;98330.47;;;1.56;100.00
52319;BME280;38258;51.148;14.068;2023-03-04T11:50:14;98333.91;;;1.58;100.00
52319;BME280;38258;51.148;14.068;2023-03-04T11:55:37;98334.06;;;1.80;100.00
52319;BME280;38258;51.148;14.068;2023-03-04T11:58:17;98322.69;;;1.50;100.00
52319;BME280;38258;51.148;14.068;2023-03-04T12:00:50;98327.13;;;1.69;100.00
52319;BME280;38258;51.148;14.068;2023-03-04T12:06:26;98310.03;;;1.87;100.00
52319;BME280;38258;51.148;14.068;2023-03-04T12:09:02;98310.81;;;1.77;100.00
52319;BME280;38258;51.148;14.068;2023-03-04T12:11:40;98301.41;;;1.82;100.00
52319;BME280;38258;51.148;14.068;2023-03-04T12:14:26;98296.13;;;1.60;100.00
52319;BME280;38258;51.148;14.068;2023-03-04T12:17:17;98307.44;;;1.81;100.00
52319;BME280;38258;51.148;14.068;2023-03-04T12:20:00;98281.53;;;1.67;100.00
52319;BME280;38258;51.148;14.068;2023-03-04T12:22:37;98294.44;;;1.70;100.00
52319;BME280;38258;51.148;14.068;2023-03-04T12:25:32;98300.53;;;1.80;100.00
52319;BME280;38258;51.148;14.068;2023-03-04T12:28:11;98291.97;;;1.90;100.00
52319;BME280;38258;51.148;14.068;2023-03-04T12:33:42;98261.78;;;1.72;100.00
52319;BME280;38258;51.148;14.068;2023-03-04T12:36:16;98285.19;;;2.06;100.00
52319;BME280;38258;51.148;14.068;2023-03-04T12:38:56;98284.31;;;2.01;100.00
52319;BME280;38258;51.148;14.068;2023-03-04T12:41:40;98267.09;;;2.00;100.00
52319;BME280;38258;51.148;14.068;2023-03-04T12:44:13;98277.47;;;2.20;100.00
52319;BME280;38258;51.148;14.068;2023-03-04T12:47:08;98283.59;;;2.38;100.00
52319;BME280;38258;51.148;14.068;2023-03-04T12:49:48;98271.47;;;2.26;100.00
52319;BME280;38258;51.148;14.068;2023-03-04T12:52:25;98268.91;;;2.31;100.00
52319;BME280;38258;51.148;14.068;2023-03-04T12:54:56;98273.25;;;2.41;100.00
52319;BME280;38258;51.148;14.068;2023-03-04T12:57:25;98244.84;;;2.33;100.00
52319;BME280;38258;51.148;14.068;2023-03-04T12:59:57;98275.88;;;2.63;100.00
52319;BME280;38258;51.148;14.068;2023-03-04T13:02:40;98275.00;;;2.61;100.00
52319;BME280;38258;51.148;14.068;2023-03-04T13:05:25;98275.00;;;2.53;100.00
52319;BME280;38258;51.148;14.068;2023-03-04T13:08:00;98270.69;;;2.41;100.00
52319;BME280;38258;51.148;14.068;2023-03-04T13:10:31;98267.19;;;2.33;100.00
52319;BME280;38258;51.148;14.068;2023-03-04T13:12:59;98260.34;;;2.39;100.00